Time;durP1;ratioP1;P1;durP2;ratioP2;P2;SDS_P1;SDS_P2;PMS_P1;PMS_P2;Temp;Humidity;BMP_temperature;BMP_pressure;BME280_temperature;BME280_humidity;BME280_pressure;Samples;Min_cycle;Max_cycle;Signal;HPM_P1;HPM_P2
2022/10/19 00:00:49;;;;;;;;;;;;;;;;;;5161458;27;19944;-83
2022/10/19 00:03:15;;;;;;;;;;;;;;;;;;5181190;27;19922;-81
2022/10/19 00:05:40;;;;;;;;;;;;;;;;;;5181031;27;19988;-82
2022/10/19 00:08:06;;;;;;;;;;;;;;;;;;5162369;27;19922;-82
2022/10/19 00:10:31;;;;;;;;;;;;;;;;;;5181041;27;19950;-81
2022/10/19 00:12:57;;;;;;;;;;;;;;;;;;5162446;27;19914;-83
2022/10/19 00:15:22;;;;;;;;;;;;;;;;;;5180932;27;19915;-82
2022/10/19 00:17:47;;;;;;;;;;;;;;;;;;5180991;27;19915;-82
2022/10/19 00:20:13;;;;;;;;;;;;;;;;;;5180617;27;19914;-81
2022/10/19 00:22:38;;;;;;;;;;;;;;;;;;5180788;27;19919;-82
2022/10/19 00:25:04;;;;;;;;;;;;;;;;;;5180534;27;19915;-82
2022/10/19 00:27:29;;;;;;;;;;;;;;;;;;5180881;27;19950;-81
2022/10/19 00:29:54;;;;;;;;;;;;;;;;;;5180676;27;19915;-82
2022/10/19 00:32:20;;;;;;;;;;;;;;;;;;5180467;27;19968;-81
2022/10/19 00:34:45;;;;;;;;;;;;;;;;;;5180862;27;19915;-82
2022/10/19 00:37:11;;;;;;;;;;;;;;;;;;5161956;27;19915;-81
2022/10/19 00:39:36;;;;;;;;;;;;;;;;;;5180396;27;19915;-82
2022/10/19 00:42:02;;;;;;;;;;;;;;;;;;5180584;27;20021;-82
2022/10/19 00:44:27;;;;;;;;;;;;;;;;;;5161688;27;20005;-82
2022/10/19 00:46:53;;;;;;;;;;;;;;;;;;5180279;27;19998;-82
2022/10/19 00:49:22;;;;;;;;;;;;;;;;;;5144645;27;19922;-82
2022/10/19 00:51:49;;;;;;;;;;;;;;;;;;5161823;27;19955;-82
2022/10/19 00:54:17;;;;;;;;;;;;;;;;;;5161638;27;20253;-82
2022/10/19 00:56:43;;;;;;;;;;;;;;;;;;5180114;27;20351;-82
2022/10/19 00:59:08;;;;;;;;;;;;;;;;;;5180146;27;19914;-82
2022/10/19 01:01:34;;;;;;;;;;;;;;;;;;5161413;27;20271;-82
2022/10/19 01:03:59;;;;;;;;;;;;;;;;;;5179660;27;19950;-83
2022/10/19 01:06:25;;;;;;;;;;;;;;;;;;5161318;27;19939;-81
2022/10/19 01:08:57;;;;;;;;;;;;;;;;;;5179852;27;19974;-82
2022/10/19 01:11:34;;;;;;;;;;;;;;;;;;5179206;27;19979;-82
2022/10/19 01:14:02;;;;;;;;;;;;;;;;;;5180061;27;19929;-82
2022/10/19 01:16:40;;;;;;;;;;;;;;;;;;5180015;27;19922;-81
2022/10/19 01:19:25;;;;;;;;;;;;;;;;;;5179631;27;20058;-82
2022/10/19 01:22:03;;;;;;;;;;;;;;;;;;5136902;27;20362;-81
2022/10/19 01:24:40;;;;;;;;;;;;;;;;;;5161218;27;20239;-82
2022/10/19 01:27:29;;;;;;;;;;;;;;;;;;5179506;27;19921;-81
2022/10/19 01:30:12;;;;;;;;;;;;;;;;;;5168179;27;19963;-82
2022/10/19 01:32:44;;;;;;;;;;;;;;;;;;5179146;27;19910;-82
2022/10/19 01:35:11;;;;;;;;;;;;;;;;;;5179426;27;20001;-82
2022/10/19 01:37:46;;;;;;;;;;;;;;;;;;5160763;27;19910;-83
2022/10/19 01:40:24;;;;;;;;;;;;;;;;;;5160867;27;19997;-82
2022/10/19 01:42:52;;;;;;;;;;;;;;;;;;5161134;27;19936;-80
2022/10/19 01:45:17;;;;;;;;;;;;;;;;;;5179557;27;19940;-81
2022/10/19 01:47:47;;;;;;;;;;;;;;;;;;5160422;27;19915;-81
2022/10/19 01:50:20;;;;;;;;;;;;;;;;;;5160815;27;19915;-81
2022/10/19 01:52:45;;;;;;;;;;;;;;;;;;5160827;27;19967;-81
2022/10/19 01:55:11;;;;;;;;;;;;;;;;;;5160523;27;19915;-81
2022/10/19 01:58:00;;;;;;;;;;;;;;;;;;5160568;27;19975;-81
2022/10/19 02:00:25;;;;;;;;;;;;;;;;;;5139364;27;19915;-81
2022/10/19 02:02:52;;;;;;;;;;;;;;;;;;5178788;27;19915;-81
2022/10/19 02:05:18;;;;;;;;;;;;;;;;;;5160286;27;20403;-80
2022/10/19 02:07:44;;;;;;;;;;;;;;;;;;5160129;27;19919;-81
2022/10/19 02:10:10;;;;;;;;;;;;;;;;;;5160195;27;19914;-81
2022/10/19 02:12:35;;;;;;;;;;;;;;;;;;5160000;27;19922;-81
2022/10/19 02:15:07;;;;;;;;;;;;;;;;;;5160146;27;19914;-81
2022/10/19 02:17:34;;;;;;;;;;;;;;;;;;5178539;27;19953;-82
2022/10/19 02:19:59;;;;;;;;;;;;;;;;;;5159887;27;19938;-83
2022/10/19 02:22:24;;;;;;;;;;;;;;;;;;5178407;27;20328;-81
2022/10/19 02:24:55;;;;;;;;;;;;;;;;;;5177432;27;19915;-81
2022/10/19 02:27:21;;;;;;;;;;;;;;;;;;5178491;27;20614;-81
2022/10/19 02:29:46;;;;;;;;;;;;;;;;;;5159880;27;19919;-82
2022/10/19 02:32:12;;;;;;;;;;;;;;;;;;5159739;27;20256;-81
2022/10/19 02:34:37;;;;;;;;;;;;;;;;;;5159366;27;20252;-81
2022/10/19 02:37:23;;;;;;;;;;;;;;;;;;5178150;27;19954;-81
2022/10/19 02:39:48;;;;;;;;;;;;;;;;;;5177486;27;19911;-81
2022/10/19 02:42:19;;;;;;;;;;;;;;;;;;5178033;27;19915;-81
2022/10/19 02:44:44;;;;;;;;;;;;;;;;;;5177731;27;20308;-82
2022/10/19 02:47:12;;;;;;;;;;;;;;;;;;5177873;27;19954;-81
2022/10/19 02:49:43;;;;;;;;;;;;;;;;;;5159390;27;19936;-81
2022/10/19 02:52:09;;;;;;;;;;;;;;;;;;5159291;27;19915;-81
2022/10/19 02:54:34;;;;;;;;;;;;;;;;;;5139113;27;20021;-81
2022/10/19 02:57:00;;;;;;;;;;;;;;;;;;5159094;27;19946;-81
2022/10/19 02:59:25;;;;;;;;;;;;;;;;;;5141683;27;19921;-81
2022/10/19 03:01:53;;;;;;;;;;;;;;;;;;5177752;27;19911;-81
2022/10/19 03:04:19;;;;;;;;;;;;;;;;;;5177623;27;20022;-81
2022/10/19 03:06:44;;;;;;;;;;;;;;;;;;5177727;27;19915;-82
2022/10/19 03:09:09;;;;;;;;;;;;;;;;;;5177451;27;19914;-82
2022/10/19 03:11:35;;;;;;;;;;;;;;;;;;5159338;27;20255;-82
2022/10/19 03:14:00;;;;;;;;;;;;;;;;;;5177867;27;19921;-81
2022/10/19 03:16:28;;;;;;;;;;;;;;;;;;5177676;27;19971;-81
2022/10/19 03:18:54;;;;;;;;;;;;;;;;;;5177749;27;19937;-82
2022/10/19 03:21:19;;;;;;;;;;;;;;;;;;5178126;27;19923;-82
2022/10/19 03:23:44;;;;;;;;;;;;;;;;;;5158942;27;20258;-82
2022/10/19 03:26:11;;;;;;;;;;;;;;;;;;5177653;27;19944;-82
2022/10/19 03:28:36;;;;;;;;;;;;;;;;;;5158378;27;19973;-84
2022/10/19 03:31:02;;;;;;;;;;;;;;;;;;5177730;27;19915;-82
2022/10/19 03:33:27;;;;;;;;;;;;;;;;;;5177455;27;19922;-81
2022/10/19 03:36:11;;;;;;;;;;;;;;;;;;5176858;27;20303;-81
2022/10/19 03:38:36;;;;;;;;;;;;;;;;;;5158537;27;19914;-81
2022/10/19 03:41:11;;;;;;;;;;;;;;;;;;5176958;27;20263;-81
2022/10/19 03:43:45;;;;;;;;;;;;;;;;;;5158059;27;19915;-82
2022/10/19 03:46:14;;;;;;;;;;;;;;;;;;5158228;27;19994;-82
2022/10/19 03:48:39;;;;;;;;;;;;;;;;;;5176807;27;19962;-82
2022/10/19 03:51:10;;;;;;;;;;;;;;;;;;5158343;27;20312;-82
2022/10/19 03:53:36;;;;;;;;;;;;;;;;;;5158409;27;19914;-82
2022/10/19 03:56:05;;;;;;;;;;;;;;;;;;5176983;27;19997;-82
2022/10/19 03:58:31;;;;;;;;;;;;;;;;;;5158116;27;19954;-82
2022/10/19 04:00:57;;;;;;;;;;;;;;;;;;5176708;27;20344;-81
2022/10/19 04:03:22;;;;;;;;;;;;;;;;;;5176674;27;19922;-82
2022/10/19 04:05:47;;;;;;;;;;;;;;;;;;5176767;27;19915;-81
2022/10/19 04:08:13;;;;;;;;;;;;;;;;;;5176508;27;19921;-83
2022/10/19 04:10:38;;;;;;;;;;;;;;;;;;5176630;27;19919;-82
2022/10/19 04:13:03;;;;;;;;;;;;;;;;;;5176447;27;20404;-83
2022/10/19 04:15:29;;;;;;;;;;;;;;;;;;5176635;27;20251;-83
2022/10/19 04:17:54;;;;;;;;;;;;;;;;;;5158142;27;20387;-82
2022/10/19 04:20:19;;;;;;;;;;;;;;;;;;5180343;27;19954;-82
2022/10/19 04:22:45;;;;;;;;;;;;;;;;;;5155462;27;19915;-81
2022/10/19 04:25:11;;;;;;;;;;;;;;;;;;5144533;27;20308;-83
2022/10/19 04:27:36;;;;;;;;;;;;;;;;;;5157923;27;20294;-82
2022/10/19 04:30:02;;;;;;;;;;;;;;;;;;5140914;27;20020;-83
2022/10/19 04:32:27;;;;;;;;;;;;;;;;;;5155042;27;19915;-81
2022/10/19 04:34:52;;;;;;;;;;;;;;;;;;5157459;27;20278;-82
2022/10/19 04:37:18;;;;;;;;;;;;;;;;;;5153821;27;20316;-80
2022/10/19 04:39:43;;;;;;;;;;;;;;;;;;5146827;27;19978;-82
2022/10/19 04:42:09;;;;;;;;;;;;;;;;;;5172110;27;20323;-82
2022/10/19 04:44:34;;;;;;;;;;;;;;;;;;5148236;27;20015;-83
2022/10/19 04:46:59;;;;;;;;;;;;;;;;;;5153062;27;19939;-82
2022/10/19 04:49:25;;;;;;;;;;;;;;;;;;5177330;27;19918;-81
2022/10/19 04:52:08;;;;;;;;;;;;;;;;;;5179190;27;20003;-81
2022/10/19 04:54:37;;;;;;;;;;;;;;;;;;5146159;27;19947;-81
2022/10/19 04:57:17;;;;;;;;;;;;;;;;;;5162670;27;20001;-81
2022/10/19 05:03:35;;;;;;;;;;;;;;;;;;5113996;28;19961;-81
2022/10/19 05:06:12;;;;;;;;;;;;;;;;;;5067783;28;20002;-82
2022/10/19 05:08:38;;;;;;;;;;;;;;;;;;5116583;28;19965;-81
2022/10/19 05:11:04;;;;;;;;;;;;;;;;;;5133378;27;20293;-81
2022/10/19 05:13:33;;;;;;;;;;;;;;;;;;5167443;27;20001;-83
2022/10/19 05:16:00;;;;;;;;;;;;;;;;;;5140186;27;19919;-84
2022/10/19 05:18:25;;;;;;;;;;;;;;;;;;5130647;27;20014;-82
2022/10/19 05:20:51;;;;;;;;;;;;;;;;;;5146122;27;20316;-83
2022/10/19 05:23:16;;;;;;;;;;;;;;;;;;5138899;27;20371;-83
2022/10/19 05:25:44;;;;;;;;;;;;;;;;;;5152556;27;19990;-81
2022/10/19 05:28:16;;;;;;;;;;;;;;;;;;5130172;27;19919;-82
2022/10/19 05:30:41;;;;;;;;;;;;;;;;;;5146085;27;20316;-82
2022/10/19 05:33:07;;;;;;;;;;;;;;;;;;5158829;27;19987;-82
2022/10/19 05:35:41;;;;;;;;;;;;;;;;;;5151135;27;20013;-81
2022/10/19 05:38:06;;;;;;;;;;;;;;;;;;5170255;27;19950;-82
2022/10/19 05:40:35;;;;;;;;;;;;;;;;;;5126782;27;20340;-82
2022/10/19 05:46:43;;;;;;;;;;;;;;;;;;5032498;28;19921;-85
2022/10/19 05:49:19;;;;;;;;;;;;;;;;;;5053668;28;19920;-84
2022/10/19 05:52:39;;;;;;;;;;;;;;;;;;5069197;28;19924;-81
2022/10/19 05:55:51;;;;;;;;;;;;;;;;;;5083767;22;19931;-83
2022/10/19 05:58:46;;;;;;;;;;;;;;;;;;5102700;28;19939;-82
2022/10/19 06:01:22;;;;;;;;;;;;;;;;;;;;;
2022/10/19 06:03:52;;;;;;;;;;;;;;;;;;5091775;28;19922;-82
2022/10/19 06:06:17;;;;;;;;;;;;;;;;;;5113247;28;19934;-80
2022/10/19 06:08:42;;;;;;;;;;;;;;;;;;5112503;28;19920;-79
2022/10/19 06:11:12;;;;;;;;;;;;;;;;;;5092150;28;20010;-80
2022/10/19 06:13:37;;;;;;;;;;;;;;;;;;5097363;28;19954;-83
2022/10/19 06:16:04;;;;;;;;;;;;;;;;;;5076131;28;19920;-80
2022/10/19 06:18:29;;;;;;;;;;;;;;;;;;5105748;28;19920;-80
2022/10/19 06:21:11;;;;;;;;;;;;;;;;;;5094941;28;19974;-83
2022/10/19 06:23:36;;;;;;;;;;;;;;;;;;5097132;28;19944;-80
2022/10/19 06:26:02;;;;;;;;;;;;;;;;;;5094151;28;20110;-81
2022/10/19 06:28:28;;;;;;;;;;;;;;;;;;5089893;28;19980;-79
2022/10/19 06:30:56;;;;;;;;;;;;;;;;;;5113511;28;20556;-81
2022/10/19 06:36:26;;;;;;;;;;;;;;;;;;5128613;28;19984;-81
2022/10/19 06:38:52;;;;;;;;;;;;;;;;;;5106854;28;19983;-80
2022/10/19 06:41:20;;;;;;;;;;;;;;;;;;5101550;28;19919;-82
2022/10/19 06:43:49;;;;;;;;;;;;;;;;;;5096658;28;19920;-80
2022/10/19 06:49:24;;;;;;;;;;;;;;;;;;5111396;28;19943;-85
2022/10/19 06:52:07;;;;;;;;;;;;;;;;;;5113942;28;20265;-84
2022/10/19 06:54:59;;;;;;;;;;;;;;;;;;5113510;28;19920;-86
2022/10/19 06:57:34;;;;;;;;;;;;;;;;;;5108011;28;19908;-83
2022/10/19 07:00:12;;;;;;;;;;;;;;;;;;5123866;28;19979;-83
2022/10/19 07:02:40;;;;;;;;;;;;;;;;;;5126191;28;19915;-84
2022/10/19 07:05:08;;;;;;;;;;;;;;;;;;5117329;28;19916;-85
2022/10/19 07:07:40;;;;;;;;;;;;;;;;;;5097256;28;19916;-85
2022/10/19 07:10:06;;;;;;;;;;;;;;;;;;5117706;28;20121;-84
2022/10/19 07:12:32;;;;;;;;;;;;;;;;;;5101269;28;19922;-85
2022/10/19 07:15:03;;;;;;;;;;;;;;;;;;5096421;28;19951;-85
2022/10/19 07:17:28;;;;;;;;;;;;;;;;;;5085579;28;19924;-85
2022/10/19 07:19:57;;;;;;;;;;;;;;;;;;5077796;28;19920;-84
2022/10/19 07:22:32;;;;;;;;;;;;;;;;;;5078383;28;20234;-85
2022/10/19 07:24:58;;;;;;;;;;;;;;;;;;5085139;28;19916;-84
2022/10/19 07:27:30;;;;;;;;;;;;;;;;;;5099425;28;19916;-84
2022/10/19 07:30:40;;;;;;;;;;;;;;;;;;5115567;28;19916;-83
2022/10/19 07:33:14;;;;;;;;;;;;;;;;;;5080770;28;19916;-86
2022/10/19 07:38:37;;;;;;;;;;;;;;;;;;5055719;28;19924;-81
2022/10/19 07:41:06;;;;;;;;;;;;;;;;;;5095699;28;19938;-89
2022/10/19 07:43:32;;;;;;;;;;;;;;;;;;5077819;28;20264;-91
2022/10/19 07:45:58;;;;;;;;;;;;;;;;;;5081095;28;19916;-90
2022/10/19 07:48:23;;;;;;;;;;;;;;;;;;5094254;28;19913;-89
2022/10/19 07:50:48;;;;;;;;;;;;;;;;;;5069460;28;20149;-91
2022/10/19 07:53:17;;;;;;;;;;;;;;;;;;5070169;28;19927;-89
2022/10/19 07:55:42;;;;;;;;;;;;;;;;;;5053378;28;19952;-86
2022/10/19 07:58:08;;;;;;;;;;;;;;;;;;5068890;28;20017;-87
2022/10/19 08:00:36;;;;;;;;;;;;;;;;;;5065589;28;19924;-89
2022/10/19 08:03:01;;;;;;;;;;;;;;;;;;5074590;28;19930;-91
2022/10/19 08:05:26;;;;;;;;;;;;;;;;;;5075859;28;19940;-91
2022/10/19 08:07:52;;;;;;;;;;;;;;;;;;5089937;28;19923;-88
2022/10/19 08:10:17;;;;;;;;;;;;;;;;;;5078009;28;20020;-88
2022/10/19 08:12:42;;;;;;;;;;;;;;;;;;5096858;28;19917;-89
2022/10/19 08:15:08;;;;;;;;;;;;;;;;;;5080587;28;19917;-87
2022/10/19 08:17:39;;;;;;;;;;;;;;;;;;5077834;28;19936;-87
2022/10/19 08:20:15;;;;;;;;;;;;;;;;;;5080208;28;19917;-87
2022/10/19 08:23:21;;;;;;;;;;;;;;;;;;5096357;28;19995;-86
2022/10/19 08:26:24;;;;;;;;;;;;;;;;;;5097493;28;19927;-88
2022/10/19 08:28:50;;;;;;;;;;;;;;;;;;5083658;28;19928;-85
2022/10/19 08:31:16;;;;;;;;;;;;;;;;;;5064441;28;20390;-89
2022/10/19 08:33:42;;;;;;;;;;;;;;;;;;5086926;28;19911;-88
2022/10/19 08:36:30;;;;;;;;;;;;;;;;;;5065246;28;19925;-88
2022/10/19 08:38:55;;;;;;;;;;;;;;;;;;5066118;28;19923;-91
2022/10/19 08:41:23;;;;;;;;;;;;;;;;;;5067035;28;19951;-91
2022/10/19 08:44:09;;;;;;;;;;;;;;;;;;5078751;28;19966;-87
2022/10/19 08:49:49;;;;;;;;;;;;;;;;;;5140495;22;19976;-88
2022/10/19 08:57:58;;;;;;;;;;;;;;;;;;5115738;22;20417;-81
2022/10/19 09:00:32;;;;;;;;;;;;;;;;;;5095303;28;20001;-84
2022/10/19 09:02:58;;;;;;;;;;;;;;;;;;5096430;28;20300;-85
2022/10/19 09:05:24;;;;;;;;;;;;;;;;;;5096822;28;19923;-82
2022/10/19 09:07:50;;;;;;;;;;;;;;;;;;5114266;28;19916;-85
2022/10/19 09:10:40;;;;;;;;;;;;;;;;;;5100682;28;19916;-85
2022/10/19 09:13:08;;;;;;;;;;;;;;;;;;5113827;28;19916;-86
2022/10/19 09:15:37;;;;;;;;;;;;;;;;;;5103678;28;19955;-85
2022/10/19 09:18:07;;;;;;;;;;;;;;;;;;5116376;28;19920;-87
2022/10/19 09:20:44;;;;;;;;;;;;;;;;;;5116225;28;20325;-83
2022/10/19 09:23:29;;;;;;;;;;;;;;;;;;5097001;28;19977;-88
2022/10/19 09:26:13;;;;;;;;;;;;;;;;;;5113966;28;19916;-88
2022/10/19 09:28:38;;;;;;;;;;;;;;;;;;5102853;28;19925;-81
2022/10/19 09:31:04;;;;;;;;;;;;;;;;;;5097972;28;20363;-79
2022/10/19 09:33:31;;;;;;;;;;;;;;;;;;5101932;28;20261;-82
2022/10/19 09:35:57;;;;;;;;;;;;;;;;;;5108745;28;19916;-81
2022/10/19 09:38:23;;;;;;;;;;;;;;;;;;5105480;28;19920;-82
2022/10/19 09:43:57;;;;;;;;;;;;;;;;;;5208533;22;19943;-89
2022/10/19 09:46:22;;;;;;;;;;;;;;;;;;5134514;22;20352;-84
2022/10/19 09:49:00;;;;;;;;;;;;;;;;;;5137135;27;19919;-87
2022/10/19 09:54:21;;;;;;;;;;;;;;;;;;5127400;22;19923;-88
2022/10/19 09:56:53;;;;;;;;;;;;;;;;;;5081743;28;20318;-89
2022/10/19 09:59:33;;;;;;;;;;;;;;;;;;5065469;28;21340;-88
2022/10/19 10:02:15;;;;;;;;;;;;;;;;;;5107686;27;19980;-86
2022/10/19 10:07:35;;;;;;;;;;;;;;;;;;5121026;22;19924;-89
2022/10/19 10:10:01;;;;;;;;;;;;;;;;;;5077547;28;20277;-78
2022/10/19 10:12:26;;;;;;;;;;;;;;;;;;5078070;28;19916;-80
2022/10/19 10:14:52;;;;;;;;;;;;;;;;;;5106795;28;20018;-78
2022/10/19 10:17:21;;;;;;;;;;;;;;;;;;5094551;28;19916;-81
2022/10/19 10:19:50;;;;;;;;;;;;;;;;;;5101412;28;19916;-78
2022/10/19 10:22:26;;;;;;;;;;;;;;;;;;5113606;28;19926;-78
2022/10/19 10:24:56;;;;;;;;;;;;;;;;;;5114712;28;20277;-79
2022/10/19 10:27:27;;;;;;;;;;;;;;;;;;5098098;28;19923;-80
2022/10/19 10:29:56;;;;;;;;;;;;;;;;;;5061233;28;20025;-78
2022/10/19 10:32:21;;;;;;;;;;;;;;;;;;5056846;28;19948;-78
2022/10/19 10:34:47;;;;;;;;;;;;;;;;;;5079275;28;19927;-80
2022/10/19 10:37:15;;;;;;;;;;;;;;;;;;5098648;28;19927;-79
2022/10/19 10:39:40;;;;;;;;;;;;;;;;;;5071740;28;19920;-83
2022/10/19 10:42:07;;;;;;;;;;;;;;;;;;5083026;28;20252;-86
2022/10/19 10:45:02;;;;;;;;;;;;;;;;;;5089132;28;19931;-84
2022/10/19 10:47:34;;;;;;;;;;;;;;;;;;5105713;28;19927;-86
2022/10/19 10:50:01;;;;;;;;;;;;;;;;;;5090881;28;19916;-85
2022/10/19 10:52:27;;;;;;;;;;;;;;;;;;5092776;28;19916;-86
2022/10/19 10:55:03;;;;;;;;;;;;;;;;;;5090251;28;20170;-84
2022/10/19 10:57:30;;;;;;;;;;;;;;;;;;5089042;28;20325;-79
2022/10/19 11:00:11;;;;;;;;;;;;;;;;;;5089798;28;19923;-79
2022/10/19 11:02:51;;;;;;;;;;;;;;;;;;5092955;28;20077;-79
2022/10/19 11:05:18;;;;;;;;;;;;;;;;;;5090943;28;19916;-81
2022/10/19 11:07:44;;;;;;;;;;;;;;;;;;5089809;28;19920;-82
2022/10/19 11:10:20;;;;;;;;;;;;;;;;;;5090526;28;20332;-79
2022/10/19 11:13:07;;;;;;;;;;;;;;;;;;5090075;28;19919;-79
2022/10/19 11:15:34;;;;;;;;;;;;;;;;;;5089743;28;19916;-78
2022/10/19 11:17:59;;;;;;;;;;;;;;;;;;5073133;28;19916;-80
2022/10/19 11:20:26;;;;;;;;;;;;;;;;;;5088928;28;20478;-79
2022/10/19 11:23:08;;;;;;;;;;;;;;;;;;5098829;28;20477;-79
2022/10/19 11:25:35;;;;;;;;;;;;;;;;;;5098307;28;20222;-78
2022/10/19 11:28:10;;;;;;;;;;;;;;;;;;5081701;28;19994;-78
2022/10/19 11:30:40;;;;;;;;;;;;;;;;;;5093168;28;19924;-79
2022/10/19 11:33:06;;;;;;;;;;;;;;;;;;5084219;28;19972;-79
2022/10/19 11:35:32;;;;;;;;;;;;;;;;;;5067507;28;19924;-78
2022/10/19 11:38:26;;;;;;;;;;;;;;;;;;5106575;28;19919;-79
2022/10/19 11:41:07;;;;;;;;;;;;;;;;;;5094974;28;19927;-81
2022/10/19 11:43:35;;;;;;;;;;;;;;;;;;5108245;28;19915;-83
2022/10/19 11:46:00;;;;;;;;;;;;;;;;;;5106872;28;19915;-81
2022/10/19 11:48:50;;;;;;;;;;;;;;;;;;5098783;28;19934;-83
2022/10/19 11:51:34;;;;;;;;;;;;;;;;;;5086634;28;19998;-79
2022/10/19 11:54:25;;;;;;;;;;;;;;;;;;5088798;28;19920;-78
2022/10/19 11:56:53;;;;;;;;;;;;;;;;;;5099712;28;20330;-76
2022/10/19 11:59:33;;;;;;;;;;;;;;;;;;5087600;28;20249;-78
2022/10/19 12:02:11;;;;;;;;;;;;;;;;;;5090142;28;19916;-77
2022/10/19 12:04:48;;;;;;;;;;;;;;;;;;5088516;28;19916;-79
2022/10/19 12:07:34;;;;;;;;;;;;;;;;;;5087660;28;19920;-78
2022/10/19 12:10:08;;;;;;;;;;;;;;;;;;5079720;28;19985;-80
2022/10/19 12:12:38;;;;;;;;;;;;;;;;;;5089050;28;20019;-79
2022/10/19 12:15:17;;;;;;;;;;;;;;;;;;5070606;28;20187;-80
2022/10/19 12:17:43;;;;;;;;;;;;;;;;;;5071922;28;20213;-79
2022/10/19 12:20:18;;;;;;;;;;;;;;;;;;5073961;28;20257;-78
2022/10/19 12:22:43;;;;;;;;;;;;;;;;;;5074785;28;19920;-78
2022/10/19 12:25:10;;;;;;;;;;;;;;;;;;5073110;28;20406;-78
2022/10/19 12:27:36;;;;;;;;;;;;;;;;;;5066882;28;19924;-78
2022/10/19 12:30:08;;;;;;;;;;;;;;;;;;5112318;28;19916;-79
2022/10/19 12:32:36;;;;;;;;;;;;;;;;;;5111076;28;19916;-80
2022/10/19 12:35:23;;;;;;;;;;;;;;;;;;5108799;28;19963;-80
2022/10/19 12:37:49;;;;;;;;;;;;;;;;;;5111617;28;20030;-79
2022/10/19 12:40:26;;;;;;;;;;;;;;;;;;5110868;28;20356;-80
2022/10/19 12:43:03;;;;;;;;;;;;;;;;;;5113572;28;19916;-78
2022/10/19 12:45:29;;;;;;;;;;;;;;;;;;5112627;28;19922;-79
2022/10/19 12:48:13;;;;;;;;;;;;;;;;;;5113735;28;19919;-79
2022/10/19 12:50:47;;;;;;;;;;;;;;;;;;5111213;28;20323;-79
2022/10/19 12:53:36;;;;;;;;;;;;;;;;;;5111907;28;19985;-80
2022/10/19 12:56:08;;;;;;;;;;;;;;;;;;5111618;28;19923;-80
2022/10/19 12:58:43;;;;;;;;;;;;;;;;;;5111873;28;19916;-80
2022/10/19 13:01:20;;;;;;;;;;;;;;;;;;5113301;28;19916;-79
2022/10/19 13:03:46;;;;;;;;;;;;;;;;;;5113508;28;19916;-80
2022/10/19 13:06:16;;;;;;;;;;;;;;;;;;5095710;28;19922;-81
2022/10/19 13:08:46;;;;;;;;;;;;;;;;;;5097909;28;20234;-80
2022/10/19 13:11:14;;;;;;;;;;;;;;;;;;5117696;28;20002;-81
2022/10/19 13:13:57;;;;;;;;;;;;;;;;;;5116414;28;20257;-80
2022/10/19 13:16:28;;;;;;;;;;;;;;;;;;5117785;28;20030;-80
2022/10/19 13:19:12;;;;;;;;;;;;;;;;;;5099438;28;19916;-79
2022/10/19 13:21:56;;;;;;;;;;;;;;;;;;5117509;28;19968;-79
2022/10/19 13:24:24;;;;;;;;;;;;;;;;;;5117233;28;19923;-79
2022/10/19 13:26:58;;;;;;;;;;;;;;;;;;5117187;28;20254;-80
2022/10/19 13:29:24;;;;;;;;;;;;;;;;;;5117378;28;20325;-80
2022/10/19 13:31:50;;;;;;;;;;;;;;;;;;5117209;28;19923;-80
2022/10/19 13:34:15;;;;;;;;;;;;;;;;;;5098890;28;19921;-79
2022/10/19 13:36:57;;;;;;;;;;;;;;;;;;5115761;28;19970;-78
2022/10/19 13:39:22;;;;;;;;;;;;;;;;;;5117486;28;19916;-79
2022/10/19 13:41:48;;;;;;;;;;;;;;;;;;5115867;28;20334;-79
2022/10/19 13:44:20;;;;;;;;;;;;;;;;;;5116035;28;19923;-79
2022/10/19 13:47:04;;;;;;;;;;;;;;;;;;5097189;28;19916;-78
2022/10/19 13:49:48;;;;;;;;;;;;;;;;;;5098868;28;20333;-78
2022/10/19 13:52:20;;;;;;;;;;;;;;;;;;5098046;28;19916;-79
2022/10/19 13:55:05;;;;;;;;;;;;;;;;;;5097431;28;19923;-78
2022/10/19 13:57:46;;;;;;;;;;;;;;;;;;5065463;28;20348;-78
2022/10/19 14:00:18;;;;;;;;;;;;;;;;;;5114957;28;20006;-79
2022/10/19 14:02:53;;;;;;;;;;;;;;;;;;5114979;28;19916;-78
2022/10/19 14:05:37;;;;;;;;;;;;;;;;;;5097391;28;19920;-80
2022/10/19 14:08:06;;;;;;;;;;;;;;;;;;5097638;28;19923;-79
2022/10/19 14:10:31;;;;;;;;;;;;;;;;;;5116453;28;19915;-80
2022/10/19 14:12:56;;;;;;;;;;;;;;;;;;5116489;28;19915;-80
2022/10/19 14:15:28;;;;;;;;;;;;;;;;;;5115102;28;19916;-80
2022/10/19 14:17:54;;;;;;;;;;;;;;;;;;5115376;28;20401;-79
2022/10/19 14:20:39;;;;;;;;;;;;;;;;;;5096955;28;19920;-78
2022/10/19 14:23:18;;;;;;;;;;;;;;;;;;5097547;28;19923;-79
2022/10/19 14:26:02;;;;;;;;;;;;;;;;;;5098113;28;19916;-79
2022/10/19 14:28:28;;;;;;;;;;;;;;;;;;5115007;28;20101;-80
2022/10/19 14:30:58;;;;;;;;;;;;;;;;;;5114588;28;19962;-81
2022/10/19 14:33:24;;;;;;;;;;;;;;;;;;5115123;28;19916;-81
2022/10/19 14:35:50;;;;;;;;;;;;;;;;;;5114375;28;20143;-79
2022/10/19 14:38:17;;;;;;;;;;;;;;;;;;5096773;28;20022;-79
2022/10/19 14:40:42;;;;;;;;;;;;;;;;;;5096294;28;20356;-78
2022/10/19 14:43:17;;;;;;;;;;;;;;;;;;5114194;28;19915;-81
2022/10/19 14:45:42;;;;;;;;;;;;;;;;;;5114669;28;19916;-80
2022/10/19 14:48:14;;;;;;;;;;;;;;;;;;5113394;28;19916;-80
2022/10/19 14:50:44;;;;;;;;;;;;;;;;;;5112535;28;19923;-81
2022/10/19 14:53:28;;;;;;;;;;;;;;;;;;5096138;28;19919;-79
2022/10/19 14:55:54;;;;;;;;;;;;;;;;;;5116002;28;19916;-79
2022/10/19 14:58:19;;;;;;;;;;;;;;;;;;5114073;28;19916;-80
2022/10/19 15:00:45;;;;;;;;;;;;;;;;;;5114211;28;19916;-77
2022/10/19 15:03:11;;;;;;;;;;;;;;;;;;5115342;28;19912;-80
2022/10/19 15:05:39;;;;;;;;;;;;;;;;;;5113761;28;19922;-80
2022/10/19 15:08:08;;;;;;;;;;;;;;;;;;5114005;28;19920;-80
2022/10/19 15:10:41;;;;;;;;;;;;;;;;;;5114349;28;19954;-79
2022/10/19 15:13:10;;;;;;;;;;;;;;;;;;5114168;28;19922;-79
2022/10/19 15:15:35;;;;;;;;;;;;;;;;;;5114720;28;19972;-81
2022/10/19 15:18:01;;;;;;;;;;;;;;;;;;5114029;28;19916;-79
2022/10/19 15:20:26;;;;;;;;;;;;;;;;;;5115150;28;19964;-78
2022/10/19 15:22:51;;;;;;;;;;;;;;;;;;5115707;28;19923;-79
2022/10/19 15:25:29;;;;;;;;;;;;;;;;;;5113984;28;20325;-79
2022/10/19 15:27:56;;;;;;;;;;;;;;;;;;5115672;28;19923;-80
2022/10/19 15:30:23;;;;;;;;;;;;;;;;;;5113242;28;19916;-81
2022/10/19 15:33:00;;;;;;;;;;;;;;;;;;5114810;28;19916;-79
2022/10/19 15:35:29;;;;;;;;;;;;;;;;;;5096318;28;19915;-79
2022/10/19 15:38:01;;;;;;;;;;;;;;;;;;5113407;28;19916;-79
2022/10/19 15:40:28;;;;;;;;;;;;;;;;;;5114904;28;20302;-78
2022/10/19 15:42:54;;;;;;;;;;;;;;;;;;5114766;28;19922;-80
2022/10/19 15:45:35;;;;;;;;;;;;;;;;;;5113599;28;19916;-78
2022/10/19 15:48:09;;;;;;;;;;;;;;;;;;5096363;28;19940;-79
2022/10/19 15:50:42;;;;;;;;;;;;;;;;;;5097254;28;19943;-80
2022/10/19 15:53:07;;;;;;;;;;;;;;;;;;5113677;28;19938;-80
2022/10/19 15:55:32;;;;;;;;;;;;;;;;;;5115172;28;19916;-78
2022/10/19 15:57:57;;;;;;;;;;;;;;;;;;5115197;28;19915;-81
2022/10/19 16:00:23;;;;;;;;;;;;;;;;;;5113647;28;19974;-81
2022/10/19 16:02:48;;;;;;;;;;;;;;;;;;5113379;28;19962;-82
2022/10/19 16:05:13;;;;;;;;;;;;;;;;;;5114647;28;19916;-81
2022/10/19 16:07:39;;;;;;;;;;;;;;;;;;5114392;28;19920;-81
2022/10/19 16:10:04;;;;;;;;;;;;;;;;;;5114589;28;19923;-81
2022/10/19 16:12:30;;;;;;;;;;;;;;;;;;5113436;28;19912;-81
2022/10/19 16:14:55;;;;;;;;;;;;;;;;;;5114661;28;19974;-82
2022/10/19 16:17:20;;;;;;;;;;;;;;;;;;5113032;28;20000;-81
2022/10/19 16:19:46;;;;;;;;;;;;;;;;;;5096578;28;19927;-77
2022/10/19 16:22:11;;;;;;;;;;;;;;;;;;5113359;28;19923;-81
2022/10/19 16:24:37;;;;;;;;;;;;;;;;;;5114461;28;19916;-81
2022/10/19 16:27:02;;;;;;;;;;;;;;;;;;5096243;28;19916;-80
2022/10/19 16:29:27;;;;;;;;;;;;;;;;;;5113229;28;19988;-81
2022/10/19 16:31:53;;;;;;;;;;;;;;;;;;5114353;28;20288;-81
2022/10/19 16:34:18;;;;;;;;;;;;;;;;;;5113312;28;20006;-81
2022/10/19 16:36:43;;;;;;;;;;;;;;;;;;5113306;28;19915;-81
2022/10/19 16:39:09;;;;;;;;;;;;;;;;;;5113000;28;19916;-81
2022/10/19 16:41:34;;;;;;;;;;;;;;;;;;5096368;28;19916;-81
2022/10/19 16:43:59;;;;;;;;;;;;;;;;;;5116123;28;19964;-80
2022/10/19 16:46:25;;;;;;;;;;;;;;;;;;5117863;28;19965;-81
2022/10/19 16:48:50;;;;;;;;;;;;;;;;;;5118142;28;19942;-81
2022/10/19 16:51:16;;;;;;;;;;;;;;;;;;5099853;28;19951;-81
2022/10/19 16:53:41;;;;;;;;;;;;;;;;;;5118123;28;19920;-81
2022/10/19 16:56:11;;;;;;;;;;;;;;;;;;5118014;28;19965;-80
2022/10/19 16:58:36;;;;;;;;;;;;;;;;;;5117066;28;19965;-80
2022/10/19 17:01:08;;;;;;;;;;;;;;;;;;5116493;28;20393;-80
2022/10/19 17:03:33;;;;;;;;;;;;;;;;;;5116811;28;19922;-81
2022/10/19 17:06:02;;;;;;;;;;;;;;;;;;5099530;28;20396;-80
2022/10/19 17:08:29;;;;;;;;;;;;;;;;;;5099689;28;19924;-81
2022/10/19 17:10:55;;;;;;;;;;;;;;;;;;5099713;28;20261;-81
2022/10/19 17:13:20;;;;;;;;;;;;;;;;;;5117608;28;19973;-80
2022/10/19 17:15:45;;;;;;;;;;;;;;;;;;5116265;28;19938;-80
2022/10/19 17:18:11;;;;;;;;;;;;;;;;;;5116324;28;19916;-80
2022/10/19 17:20:36;;;;;;;;;;;;;;;;;;5117922;28;19916;-81
2022/10/19 17:23:01;;;;;;;;;;;;;;;;;;5099481;28;20013;-81
2022/10/19 17:25:27;;;;;;;;;;;;;;;;;;5117483;28;20003;-80
2022/10/19 17:27:52;;;;;;;;;;;;;;;;;;5117693;28;20341;-80
2022/10/19 17:30:17;;;;;;;;;;;;;;;;;;5117117;28;20332;-82
2022/10/19 17:32:43;;;;;;;;;;;;;;;;;;5117448;28;20321;-81
2022/10/19 17:35:08;;;;;;;;;;;;;;;;;;5116397;28;19920;-80
2022/10/19 17:37:33;;;;;;;;;;;;;;;;;;5117204;28;19915;-81
2022/10/19 17:39:59;;;;;;;;;;;;;;;;;;5099299;28;19923;-80